createdAt,value
2019-05-22T00:00:12.596Z,1005.22
2019-05-22T00:01:12.334Z,1005.17
2019-05-22T00:02:11.908Z,1005.14
2019-05-22T00:03:11.535Z,1005.11
2019-05-22T00:04:11.166Z,1005.06
2019-05-22T00:05:10.750Z,1005.14
2019-05-22T00:06:10.378Z,1005.11
2019-05-22T00:07:09.979Z,1005.12
2019-05-22T00:08:09.748Z,1005.14
2019-05-22T00:09:09.282Z,1005.15
2019-05-22T00:10:08.864Z,1005.20
2019-05-22T00:11:08.540Z,1005.08
2019-05-22T00:12:08.169Z,1005.15
2019-05-22T00:13:07.832Z,1005.15
2019-05-22T00:14:07.411Z,1005.21
2019-05-22T00:15:06.980Z,1005.14
2019-05-22T00:16:06.602Z,1005.15
2019-05-22T00:17:06.221Z,1005.16
2019-05-22T00:18:05.765Z,1005.25
2019-05-22T00:19:05.504Z,1005.23
2019-05-22T00:20:09.886Z,1005.15
2019-05-22T00:21:08.505Z,1005.18
2019-05-22T00:22:08.103Z,1005.17
2019-05-22T00:23:07.620Z,1005.17
2019-05-22T00:24:07.354Z,1005.25
2019-05-22T00:25:06.945Z,1005.23
2019-05-22T00:26:06.529Z,1005.16
2019-05-22T00:27:06.115Z,1005.20
2019-05-22T00:28:05.763Z,1005.21
2019-05-22T00:29:05.320Z,1005.28
2019-05-22T00:30:04.896Z,1005.27
2019-05-22T00:31:04.523Z,1005.26
2019-05-22T00:32:04.046Z,1005.32
2019-05-22T00:33:03.683Z,1005.26
2019-05-22T00:34:03.378Z,1005.31
2019-05-22T00:35:03.090Z,1005.27
2019-05-22T00:36:02.792Z,1005.36
2019-05-22T00:37:02.395Z,1005.40
2019-05-22T00:38:01.909Z,1005.30
2019-05-22T00:39:01.544Z,1005.40
2019-05-22T00:40:05.785Z,1005.22
2019-05-22T00:41:04.420Z,1005.39
2019-05-22T00:42:03.988Z,1005.31
2019-05-22T00:43:10.656Z,1005.26
2019-05-22T00:44:06.739Z,1005.27
2019-05-22T00:45:05.462Z,1005.35
2019-05-22T00:46:05.234Z,1005.40
2019-05-22T00:47:04.830Z,1005.35
2019-05-22T00:48:07.099Z,1005.35
2019-05-22T00:49:05.950Z,1005.36
2019-05-22T00:50:05.594Z,1005.41
2019-05-22T00:51:05.251Z,1005.39
2019-05-22T00:52:04.998Z,1005.46
2019-05-22T00:53:08.172Z,1005.47
2019-05-22T00:54:07.011Z,1005.53
2019-05-22T00:55:06.635Z,1005.44
2019-05-22T00:56:07.886Z,1005.39
2019-05-22T00:57:06.998Z,1005.41
2019-05-22T00:58:06.557Z,1005.39
2019-05-22T00:59:06.094Z,1005.36
2019-05-22T01:00:05.789Z,1005.46
2019-05-22T01:01:05.364Z,1005.44
2019-05-22T01:02:04.982Z,1005.54
2019-05-22T01:03:04.430Z,1005.42
2019-05-22T01:04:04.077Z,1005.52
2019-05-22T01:05:03.725Z,1005.54
2019-05-22T01:06:03.745Z,1005.52
2019-05-22T01:07:03.265Z,1005.48
2019-05-22T01:08:02.818Z,1005.51
2019-05-22T01:09:02.424Z,1005.57
2019-05-22T01:10:02.375Z,1005.51
2019-05-22T01:11:01.544Z,1005.57
2019-05-22T01:12:01.157Z,1005.56
2019-05-22T01:13:00.809Z,1005.56
2019-05-22T01:14:00.412Z,1005.56
2019-05-22T01:15:00.080Z,1005.54
2019-05-22T01:15:59.710Z,1005.39
2019-05-22T01:16:59.386Z,1005.54
2019-05-22T01:17:58.712Z,1005.55
2019-05-22T01:18:58.361Z,1005.51
2019-05-22T01:19:58.024Z,1005.48
2019-05-22T01:20:57.575Z,1005.57
2019-05-22T01:21:57.431Z,1005.49
2019-05-22T01:22:57.044Z,1005.50
2019-05-22T01:23:56.593Z,1005.51
2019-05-22T01:24:56.261Z,1005.57
2019-05-22T01:25:55.928Z,1005.47
2019-05-22T01:26:55.490Z,1005.52
2019-05-22T01:27:55.127Z,1005.49
2019-05-22T01:28:59.571Z,1005.56
2019-05-22T01:29:58.283Z,1005.56
2019-05-22T01:30:57.872Z,1005.56
2019-05-22T01:31:57.627Z,1005.62
2019-05-22T01:33:02.067Z,1005.57
2019-05-22T01:34:00.704Z,1005.59
2019-05-22T01:35:00.275Z,1005.61
2019-05-22T01:35:59.856Z,1005.67
2019-05-22T01:36:59.479Z,1005.66
2019-05-22T01:37:59.111Z,1005.58
2019-05-22T01:38:58.767Z,1005.68
2019-05-22T01:39:58.350Z,1005.65
2019-05-22T01:40:57.964Z,1005.66
2019-05-22T01:41:57.550Z,1005.60
2019-05-22T01:42:57.341Z,1005.61
2019-05-22T01:43:56.953Z,1005.61
2019-05-22T01:45:05.265Z,1005.68
2019-05-22T01:45:56.166Z,1005.62
2019-05-22T01:46:55.749Z,1005.62
2019-05-22T01:47:55.440Z,1005.67
2019-05-22T01:48:56.732Z,1005.69
2019-05-22T01:49:55.832Z,1005.62
2019-05-22T01:50:55.485Z,1005.62
2019-05-22T01:51:55.066Z,1005.68
2019-05-22T01:52:54.694Z,1005.61
2019-05-22T01:53:54.361Z,1005.70
2019-05-22T01:54:54.015Z,1005.57
2019-05-22T01:55:53.636Z,1005.59
2019-05-22T01:56:53.211Z,1005.63
2019-05-22T01:57:52.837Z,1005.59
2019-05-22T01:58:52.422Z,1005.62
2019-05-22T01:59:52.042Z,1005.61
2019-05-22T02:00:56.349Z,1005.68
2019-05-22T02:01:54.981Z,1005.62
2019-05-22T02:02:54.491Z,1005.71
2019-05-22T02:03:54.213Z,1005.62
2019-05-22T02:04:53.813Z,1005.67
2019-05-22T02:05:53.441Z,1005.62
2019-05-22T02:06:53.029Z,1005.59
2019-05-22T02:07:52.662Z,1005.59
2019-05-22T02:08:52.287Z,1005.59
2019-05-22T02:09:51.866Z,1005.60
2019-05-22T02:10:51.444Z,1005.58
2019-05-22T02:11:51.044Z,1005.56
2019-05-22T02:12:50.658Z,1005.69
2019-05-22T02:13:50.281Z,1005.56
2019-05-22T02:14:49.936Z,1005.60
2019-05-22T02:15:49.641Z,1005.58
2019-05-22T02:16:56.791Z,1005.53
2019-05-22T02:17:48.826Z,1005.65
2019-05-22T02:18:48.623Z,1005.54
2019-05-22T02:19:48.145Z,1005.59
2019-05-22T02:20:52.436Z,1005.56
2019-05-22T02:21:51.072Z,1005.59
2019-05-22T02:22:50.595Z,1005.53
2019-05-22T02:23:50.174Z,1005.65
2019-05-22T02:24:49.915Z,1005.56
2019-05-22T02:25:49.526Z,1005.63
2019-05-22T02:26:49.186Z,1005.60
2019-05-22T02:27:48.796Z,1005.50
2019-05-22T02:28:48.500Z,1005.52
2019-05-22T02:29:48.095Z,1005.57
2019-05-22T02:30:52.351Z,1005.55
2019-05-22T02:31:55.010Z,1005.51
2019-05-22T02:32:50.557Z,1005.57
2019-05-22T02:33:50.151Z,1005.59
2019-05-22T02:34:49.777Z,1005.56
2019-05-22T02:35:49.407Z,1005.60
2019-05-22T02:36:49.029Z,1005.57
2019-05-22T02:37:53.484Z,1005.56
2019-05-22T02:38:52.065Z,1005.58
2019-05-22T02:39:51.674Z,1005.53
2019-05-22T02:40:51.288Z,1005.57
2019-05-22T02:41:50.926Z,1005.64
2019-05-22T02:42:50.601Z,1005.65
2019-05-22T02:43:50.307Z,1005.61
2019-05-22T02:44:49.863Z,1005.65
2019-05-22T02:45:49.518Z,1005.62
2019-05-22T02:46:49.152Z,1005.68
2019-05-22T02:47:48.697Z,1005.72
2019-05-22T02:48:48.279Z,1005.69
2019-05-22T02:49:47.945Z,1005.70
2019-05-22T02:50:47.533Z,1005.70
2019-05-22T02:51:47.177Z,1005.75
2019-05-22T02:52:46.850Z,1005.69
2019-05-22T02:53:51.297Z,1005.65
2019-05-22T02:54:49.889Z,1005.71
2019-05-22T02:55:54.197Z,1005.73
2019-05-22T02:56:52.860Z,1005.66
2019-05-22T02:57:52.422Z,1005.63
2019-05-22T02:58:52.116Z,1005.74
2019-05-22T02:59:51.684Z,1005.71
2019-05-22T03:00:56.103Z,1005.76
2019-05-22T03:01:54.710Z,1005.74
2019-05-22T03:02:59.251Z,1005.74
2019-05-22T03:03:57.839Z,1005.75
2019-05-22T03:04:57.380Z,1005.81
2019-05-22T03:05:57.120Z,1005.81
2019-05-22T03:06:56.708Z,1005.85
2019-05-22T03:07:56.256Z,1005.81
2019-05-22T03:08:55.970Z,1005.83
2019-05-22T03:09:55.647Z,1005.82
2019-05-22T03:10:55.276Z,1005.76
2019-05-22T03:11:55.008Z,1005.78
2019-05-22T03:12:54.599Z,1005.81
2019-05-22T03:13:54.258Z,1005.75
2019-05-22T03:14:53.850Z,1005.76
2019-05-22T03:15:53.444Z,1005.80
2019-05-22T03:16:53.084Z,1005.82
2019-05-22T03:17:52.652Z,1005.87
2019-05-22T03:19:08.405Z,1005.73
2019-05-22T03:19:55.645Z,1005.83
2019-05-22T03:20:55.236Z,1005.75
2019-05-22T03:21:54.976Z,1005.78
2019-05-22T03:22:54.602Z,1005.89
2019-05-22T03:23:54.222Z,1005.86
2019-05-22T03:24:53.845Z,1005.91
2019-05-22T03:25:58.280Z,1005.88
2019-05-22T03:26:56.902Z,1005.82
2019-05-22T03:27:56.444Z,1005.84
2019-05-22T03:28:55.984Z,1005.83
2019-05-22T03:29:55.629Z,1005.84
2019-05-22T03:30:55.205Z,1005.91
2019-05-22T03:31:54.763Z,1005.84
2019-05-22T03:32:54.344Z,1005.90
2019-05-22T03:33:53.938Z,1005.91
2019-05-22T03:34:53.528Z,1005.88
2019-05-22T03:35:53.181Z,1005.82
2019-05-22T03:36:52.741Z,1005.89
2019-05-22T03:37:52.269Z,1005.84
2019-05-22T03:38:51.987Z,1005.82
2019-05-22T03:39:51.522Z,1005.92
2019-05-22T03:40:51.172Z,1005.89
2019-05-22T03:41:59.097Z,1005.89
2019-05-22T03:42:57.465Z,1005.97
2019-05-22T03:43:56.951Z,1005.90
2019-05-22T03:44:56.643Z,1005.92
2019-05-22T03:45:56.371Z,1005.87
2019-05-22T03:46:59.396Z,1005.91
2019-05-22T03:47:55.426Z,1005.92
2019-05-22T03:48:55.031Z,1005.92
2019-05-22T03:49:54.683Z,1005.85
2019-05-22T03:50:54.443Z,1005.90
2019-05-22T03:51:54.056Z,1005.93
2019-05-22T03:52:53.661Z,1005.96
2019-05-22T03:53:53.275Z,1005.97
2019-05-22T03:54:52.938Z,1005.94
2019-05-22T03:55:52.508Z,1005.96
2019-05-22T03:56:52.190Z,1006.02
2019-05-22T03:57:56.564Z,1005.92
2019-05-22T03:58:55.169Z,1005.95
2019-05-22T03:59:54.795Z,1005.92
2019-05-22T04:00:54.623Z,1005.98
2019-05-22T04:01:54.147Z,1005.94
2019-05-22T04:02:53.755Z,1006.04
2019-05-22T04:03:53.413Z,1006.08
2019-05-22T04:04:53.040Z,1005.97
2019-05-22T04:05:52.605Z,1005.96
2019-05-22T04:06:52.205Z,1005.88
2019-05-22T04:07:56.586Z,1006.02
2019-05-22T04:08:55.274Z,1005.96
2019-05-22T04:09:54.850Z,1006.07
2019-05-22T04:10:54.465Z,1006.08
2019-05-22T04:12:02.501Z,1006.12
2019-05-22T04:13:00.986Z,1006.10
2019-05-22T04:14:00.570Z,1006.09
2019-05-22T04:15:00.179Z,1006.05
2019-05-22T04:15:59.837Z,1006.10
2019-05-22T04:16:59.473Z,1006.19
2019-05-22T04:17:59.115Z,1006.18
2019-05-22T04:19:03.494Z,1006.26
2019-05-22T04:20:02.223Z,1006.22
2019-05-22T04:21:01.763Z,1006.22
2019-05-22T04:22:01.419Z,1006.24
2019-05-22T04:23:01.076Z,1006.21
2019-05-22T04:24:00.761Z,1006.21
2019-05-22T04:25:00.340Z,1006.16
2019-05-22T04:25:59.933Z,1006.23
2019-05-22T04:26:59.582Z,1006.19
2019-05-22T04:28:04.099Z,1006.18
2019-05-22T04:29:02.721Z,1006.22
2019-05-22T04:30:02.287Z,1006.22
2019-05-22T04:31:01.790Z,1006.27
2019-05-22T04:32:01.467Z,1006.28
2019-05-22T04:33:00.993Z,1006.29
2019-05-22T04:34:00.600Z,1006.30
2019-05-22T04:35:00.198Z,1006.31
2019-05-22T04:35:59.823Z,1006.28
2019-05-22T04:36:59.438Z,1006.32
2019-05-22T04:37:58.995Z,1006.32
2019-05-22T04:38:58.528Z,1006.33
2019-05-22T04:39:57.996Z,1006.34
2019-05-22T04:40:57.413Z,1006.28
2019-05-22T04:41:56.945Z,1006.26
2019-05-22T04:42:56.495Z,1006.29
2019-05-22T04:43:55.959Z,1006.27
2019-05-22T04:44:55.739Z,1006.30
2019-05-22T04:45:55.278Z,1006.27
2019-05-22T04:46:54.893Z,1006.37
2019-05-22T04:47:54.281Z,1006.35
2019-05-22T04:48:53.787Z,1006.33
2019-05-22T04:50:06.741Z,1006.26
2019-05-22T04:50:52.791Z,1006.33
2019-05-22T04:51:52.307Z,1006.37
2019-05-22T04:52:51.785Z,1006.29
2019-05-22T04:53:51.399Z,1006.41
2019-05-22T04:54:52.533Z,1006.40
2019-05-22T04:55:50.409Z,1006.37
2019-05-22T04:56:49.911Z,1006.37
2019-05-22T04:57:54.367Z,1006.38
2019-05-22T04:58:52.865Z,1006.42
2019-05-22T04:59:52.306Z,1006.38
2019-05-22T05:00:51.820Z,1006.40
2019-05-22T05:01:51.332Z,1006.42
2019-05-22T05:02:50.872Z,1006.45
2019-05-22T05:03:50.382Z,1006.48
2019-05-22T05:04:49.889Z,1006.43
2019-05-22T05:05:49.358Z,1006.43
2019-05-22T05:06:48.906Z,1006.42
2019-05-22T05:07:48.453Z,1006.49
2019-05-22T05:08:48.267Z,1006.45
2019-05-22T05:09:47.660Z,1006.53
2019-05-22T05:10:47.247Z,1006.53
2019-05-22T05:11:47.749Z,1006.47
2019-05-22T05:12:46.899Z,1006.51
2019-05-22T05:13:46.362Z,1006.47
2019-05-22T05:14:45.833Z,1006.45
2019-05-22T05:15:45.544Z,1006.42
2019-05-22T05:16:44.979Z,1006.51
2019-05-22T05:17:44.603Z,1006.50
2019-05-22T05:18:44.685Z,1006.50
2019-05-22T05:19:44.043Z,1006.50
2019-05-22T05:20:43.663Z,1006.51
2019-05-22T05:21:43.242Z,1006.52
2019-05-22T05:22:42.775Z,1006.49
2019-05-22T05:23:42.383Z,1006.53
2019-05-22T05:24:46.824Z,1006.58
2019-05-22T05:25:45.483Z,1006.56
2019-05-22T05:26:45.031Z,1006.60
2019-05-22T05:27:44.627Z,1006.62
2019-05-22T05:28:44.341Z,1006.54
2019-05-22T05:29:43.983Z,1006.60
2019-05-22T05:30:43.621Z,1006.59
2019-05-22T05:31:43.266Z,1006.58
2019-05-22T05:32:42.881Z,1006.62
2019-05-22T05:33:42.492Z,1006.52
2019-05-22T05:34:45.273Z,1006.59
2019-05-22T05:35:41.711Z,1006.63
2019-05-22T05:36:41.380Z,1006.64
2019-05-22T05:37:41.006Z,1006.62
2019-05-22T05:38:40.548Z,1006.64
2019-05-22T05:39:40.246Z,1006.69
2019-05-22T05:40:39.932Z,1006.64
2019-05-22T05:41:44.140Z,1006.65
2019-05-22T05:42:42.872Z,1006.66
2019-05-22T05:43:42.405Z,1006.67
2019-05-22T05:44:41.891Z,1006.67
2019-05-22T05:45:41.465Z,1006.74
2019-05-22T05:46:41.029Z,1006.73
2019-05-22T05:47:40.714Z,1006.71
2019-05-22T05:48:40.157Z,1006.83
2019-05-22T05:49:39.697Z,1006.69
2019-05-22T05:50:40.541Z,1006.75
2019-05-22T05:51:43.873Z,1006.72
2019-05-22T05:52:42.485Z,1006.77
2019-05-22T05:53:46.791Z,1006.78
2019-05-22T05:54:50.215Z,1006.84
2019-05-22T05:55:48.783Z,1006.82
2019-05-22T05:56:48.338Z,1006.79
2019-05-22T05:57:48.001Z,1006.78
2019-05-22T05:58:47.584Z,1006.79
2019-05-22T05:59:47.167Z,1006.83
2019-05-22T06:00:51.548Z,1006.83
2019-05-22T06:01:55.032Z,1006.82
2019-05-22T06:02:56.450Z,1006.89
2019-05-22T06:03:53.181Z,1006.84
2019-05-22T06:04:52.837Z,1006.84
2019-05-22T06:05:52.515Z,1006.81
2019-05-22T06:06:52.125Z,1006.85
2019-05-22T06:07:51.799Z,1006.96
2019-05-22T06:08:51.437Z,1006.85
2019-05-22T06:09:51.051Z,1006.90
2019-05-22T06:10:50.660Z,1006.92
2019-05-22T06:11:50.305Z,1006.93
2019-05-22T06:12:50.007Z,1006.93
2019-05-22T06:13:49.279Z,1006.89
2019-05-22T06:14:48.916Z,1006.90
2019-05-22T06:15:48.462Z,1006.91
2019-05-22T06:16:48.269Z,1006.97
2019-05-22T06:17:47.848Z,1007.05
2019-05-22T06:18:47.458Z,1006.99
2019-05-22T06:19:51.870Z,1006.92
2019-05-22T06:21:03.340Z,1007.01
2019-05-22T06:21:50.029Z,1007.00
2019-05-22T06:22:49.623Z,1006.97
2019-05-22T06:23:49.376Z,1007.05
2019-05-22T06:24:48.997Z,1007.14
2019-05-22T06:25:48.609Z,1007.13
2019-05-22T06:26:48.269Z,1007.02
2019-05-22T06:27:47.856Z,1007.05
2019-05-22T06:28:47.553Z,1007.04
2019-05-22T06:29:47.087Z,1007.01
2019-05-22T06:30:46.826Z,1007.03
2019-05-22T06:31:51.282Z,1007.14
2019-05-22T06:32:49.945Z,1007.17
2019-05-22T06:33:54.390Z,1007.11
2019-05-22T06:34:52.945Z,1007.16
2019-05-22T06:35:52.458Z,1007.17
2019-05-22T06:36:52.091Z,1007.14
2019-05-22T06:37:51.751Z,1007.12
2019-05-22T06:38:51.309Z,1007.19
2019-05-22T06:39:50.927Z,1007.18
2019-05-22T06:40:50.514Z,1007.11
2019-05-22T06:41:49.940Z,1007.18
2019-05-22T06:42:49.658Z,1007.15
2019-05-22T06:43:49.265Z,1007.17
2019-05-22T06:44:48.860Z,1007.22
2019-05-22T06:45:48.532Z,1007.28
2019-05-22T06:46:48.138Z,1007.26
2019-05-22T06:47:47.838Z,1007.20
2019-05-22T06:48:47.584Z,1007.26
2019-05-22T06:49:46.984Z,1007.32
2019-05-22T06:50:49.241Z,1007.36
2019-05-22T06:51:45.989Z,1007.31
2019-05-22T06:52:45.500Z,1007.38
2019-05-22T06:53:45.048Z,1007.38
2019-05-22T06:54:44.621Z,1007.40
2019-05-22T06:55:44.069Z,1007.42
2019-05-22T06:56:43.681Z,1007.35
2019-05-22T06:57:43.108Z,1007.33
2019-05-22T06:58:42.599Z,1007.41
2019-05-22T06:59:42.206Z,1007.27
2019-05-22T07:00:41.772Z,1007.47
2019-05-22T07:01:41.301Z,1007.39
2019-05-22T07:02:40.798Z,1007.40
2019-05-22T07:03:40.299Z,1007.36
2019-05-22T07:04:39.869Z,1007.34
2019-05-22T07:05:39.350Z,1007.33
2019-05-22T07:06:38.945Z,1007.41
2019-05-22T07:07:38.543Z,1007.38
2019-05-22T07:08:39.931Z,1007.38
2019-05-22T07:09:38.920Z,1007.42
2019-05-22T07:10:38.496Z,1007.38
2019-05-22T07:11:42.749Z,1007.36
2019-05-22T07:12:41.361Z,1007.47
2019-05-22T07:13:40.947Z,1007.45
2019-05-22T07:14:40.481Z,1007.40
2019-05-22T07:15:44.914Z,1007.41
2019-05-22T07:16:43.381Z,1007.41
2019-05-22T07:17:43.175Z,1007.41
2019-05-22T07:18:42.725Z,1007.50
2019-05-22T07:19:42.320Z,1007.41
2019-05-22T07:20:41.831Z,1007.35
2019-05-22T07:21:41.421Z,1007.40
2019-05-22T07:22:41.054Z,1007.40
2019-05-22T07:23:40.627Z,1007.45
2019-05-22T07:24:40.362Z,1007.48
2019-05-22T07:25:42.932Z,1007.46
2019-05-22T07:26:41.745Z,1007.45
2019-05-22T07:27:41.399Z,1007.47
2019-05-22T07:28:40.966Z,1007.46
2019-05-22T07:29:43.567Z,1007.48
2019-05-22T07:30:42.421Z,1007.41
2019-05-22T07:31:42.024Z,1007.40
2019-05-22T07:32:46.474Z,1007.43
2019-05-22T07:33:45.088Z,1007.44
2019-05-22T07:34:44.598Z,1007.48
2019-05-22T07:36:07.625Z,1007.41
2019-05-22T07:36:49.887Z,1007.50
2019-05-22T07:37:53.350Z,1007.50
2019-05-22T07:38:51.888Z,1007.55
2019-05-22T07:39:56.232Z,1007.57
2019-05-22T07:40:54.763Z,1007.51
2019-05-22T07:41:59.127Z,1007.58
2019-05-22T07:42:57.747Z,1007.53
2019-05-22T07:43:57.308Z,1007.52
2019-05-22T07:44:56.976Z,1007.57
2019-05-22T07:46:04.893Z,1007.57
2019-05-22T07:47:08.021Z,1007.59
2019-05-22T07:48:06.647Z,1007.56
2019-05-22T07:49:06.234Z,1007.64
2019-05-22T07:50:10.616Z,1007.58
2019-05-22T07:51:09.230Z,1007.60
2019-05-22T07:52:13.624Z,1007.63
2019-05-22T07:53:12.235Z,1007.69
2019-05-22T07:54:11.730Z,1007.61
2019-05-22T07:55:11.261Z,1007.64
2019-05-22T07:56:10.919Z,1007.65
2019-05-22T07:57:18.723Z,1007.74
2019-05-22T07:58:17.133Z,1007.70
2019-05-22T07:59:16.740Z,1007.75
2019-05-22T08:00:16.477Z,1007.76
2019-05-22T08:01:20.888Z,1007.75
2019-05-22T08:02:19.531Z,1007.72
2019-05-22T08:03:19.096Z,1007.72
2019-05-22T08:04:18.735Z,1007.74
2019-05-22T08:05:18.399Z,1007.65
2019-05-22T08:06:17.980Z,1007.70
2019-05-22T08:07:17.556Z,1007.71
2019-05-22T08:08:18.897Z,1007.71
2019-05-22T08:10:22.936Z,1007.78
2019-05-22T08:11:22.480Z,1007.70
2019-05-22T08:12:22.061Z,1007.72
2019-05-22T08:13:21.733Z,1007.71
2019-05-22T08:14:21.342Z,1007.67
2019-05-22T08:15:20.967Z,1007.66
2019-05-22T08:16:20.532Z,1007.70
2019-05-22T08:17:20.214Z,1007.60
2019-05-22T08:18:19.846Z,1007.61
2019-05-22T08:19:19.464Z,1007.60
2019-05-22T08:20:19.059Z,1007.68
2019-05-22T08:21:23.668Z,1007.65
2019-05-22T08:22:25.379Z,1007.64
2019-05-22T08:23:24.149Z,1007.72
2019-05-22T08:24:23.735Z,1007.69
2019-05-22T08:25:23.281Z,1007.68
2019-05-22T08:26:22.850Z,1007.69
2019-05-22T08:27:22.465Z,1007.72
2019-05-22T08:28:22.056Z,1007.68
2019-05-22T08:29:21.679Z,1007.70
2019-05-22T08:30:21.269Z,1007.71
2019-05-22T08:31:21.282Z,1007.75
2019-05-22T08:32:23.408Z,1007.70
2019-05-22T08:33:22.309Z,1007.79
2019-05-22T08:34:26.693Z,1007.75
2019-05-22T08:35:25.319Z,1007.74
2019-05-22T08:36:24.898Z,1007.83
2019-05-22T08:37:24.385Z,1007.90
2019-05-22T08:38:28.995Z,1007.86
2019-05-22T08:39:27.504Z,1007.84
2019-05-22T08:40:27.095Z,1007.90
2019-05-22T08:41:26.610Z,1007.82
2019-05-22T08:42:26.185Z,1007.85
2019-05-22T08:43:25.873Z,1007.84
2019-05-22T08:44:25.491Z,1007.89
2019-05-22T08:45:25.079Z,1007.83
2019-05-22T08:46:24.681Z,1007.83
2019-05-22T08:47:24.315Z,1007.83
2019-05-22T08:48:23.955Z,1007.81
2019-05-22T08:49:23.509Z,1007.83
2019-05-22T08:50:23.112Z,1007.83
2019-05-22T08:51:22.783Z,1007.89
2019-05-22T08:52:24.075Z,1007.93
2019-05-22T08:53:22.098Z,1007.95
2019-05-22T08:54:25.260Z,1007.86
2019-05-22T08:55:24.011Z,1007.92
2019-05-22T08:56:23.607Z,1007.98
2019-05-22T08:57:23.236Z,1007.96
2019-05-22T08:58:22.842Z,1007.95
2019-05-22T08:59:26.076Z,1008.00
2019-05-22T09:00:24.822Z,1007.95
2019-05-22T09:01:24.498Z,1007.95
2019-05-22T09:02:23.892Z,1008.01
2019-05-22T09:03:23.545Z,1007.94
2019-05-22T09:04:23.097Z,1007.96
2019-05-22T09:05:22.747Z,1008.04
2019-05-22T09:06:22.414Z,1008.00
2019-05-22T09:07:21.997Z,1008.07
2019-05-22T09:08:21.571Z,1008.01
2019-05-22T09:09:21.166Z,1008.01
2019-05-22T09:10:20.757Z,1007.99
2019-05-22T09:11:25.166Z,1008.06
2019-05-22T09:12:23.801Z,1008.01
2019-05-22T09:13:23.401Z,1008.02
2019-05-22T09:14:23.042Z,1008.01
2019-05-22T09:15:22.429Z,1008.01
2019-05-22T09:16:22.144Z,1008.04
2019-05-22T09:17:21.811Z,1008.05
2019-05-22T09:18:21.335Z,1007.94
2019-05-22T09:19:20.956Z,1008.05
2019-05-22T09:20:25.517Z,1008.04
2019-05-22T09:21:24.045Z,1008.01
2019-05-22T09:22:39.117Z,1008.04
2019-05-22T09:23:23.362Z,1008.07
2019-05-22T09:24:22.947Z,1008.05
2019-05-22T09:25:27.383Z,1008.10
2019-05-22T09:26:26.011Z,1008.07
2019-05-22T09:27:29.158Z,1008.09
2019-05-22T09:28:27.857Z,1008.10
2019-05-22T09:29:27.555Z,1008.08
2019-05-22T09:30:27.181Z,1008.08
2019-05-22T09:31:26.800Z,1008.03
2019-05-22T09:32:26.397Z,1008.13
2019-05-22T09:33:26.033Z,1008.15
2019-05-22T09:34:25.557Z,1008.16
2019-05-22T09:35:25.632Z,1008.18
2019-05-22T09:36:24.911Z,1008.19
2019-05-22T09:37:24.560Z,1008.20
2019-05-22T09:38:24.148Z,1008.15
2019-05-22T09:39:23.715Z,1008.17
2019-05-22T09:40:23.353Z,1008.19
2019-05-22T09:41:22.671Z,1008.19
2019-05-22T09:42:22.171Z,1008.25
2019-05-22T09:43:21.846Z,1008.23
2019-05-22T09:44:26.200Z,1008.25
2019-05-22T09:45:24.755Z,1008.29
2019-05-22T09:46:24.308Z,1008.25
2019-05-22T09:47:23.946Z,1008.32
2019-05-22T09:48:23.537Z,1008.21
2019-05-22T09:49:24.109Z,1008.32
2019-05-22T09:50:22.750Z,1008.30
2019-05-22T09:51:22.338Z,1008.28
2019-05-22T09:52:21.977Z,1008.31
2019-05-22T09:53:21.649Z,1008.24
2019-05-22T09:54:21.245Z,1008.36
2019-05-22T09:55:20.819Z,1008.32
2019-05-22T09:56:20.447Z,1008.32
2019-05-22T09:57:20.063Z,1008.30
2019-05-22T09:58:19.707Z,1008.36
2019-05-22T09:59:19.325Z,1008.26
2019-05-22T10:00:27.272Z,1008.32
2019-05-22T10:01:25.625Z,1008.44
2019-05-22T10:02:25.185Z,1008.36
2019-05-22T10:03:24.865Z,1008.43
2019-05-22T10:04:24.367Z,1008.44
2019-05-22T10:05:24.017Z,1008.46
2019-05-22T10:06:23.582Z,1008.44
2019-05-22T10:07:23.174Z,1008.46
2019-05-22T10:08:22.817Z,1008.46
2019-05-22T10:09:22.377Z,1008.53
2019-05-22T10:10:22.097Z,1008.44
2019-05-22T10:11:21.701Z,1008.48
2019-05-22T10:12:21.300Z,1008.47
2019-05-22T10:13:29.009Z,1008.44
2019-05-22T10:14:24.271Z,1008.48
2019-05-22T10:15:23.785Z,1008.37
2019-05-22T10:16:23.468Z,1008.46
2019-05-22T10:17:23.189Z,1008.46
2019-05-22T10:18:22.925Z,1008.48
2019-05-22T10:19:22.474Z,1008.47
2019-05-22T10:20:22.065Z,1008.48
2019-05-22T10:21:21.698Z,1008.44
2019-05-22T10:22:21.411Z,1008.51
2019-05-22T10:23:21.022Z,1008.49
2019-05-22T10:24:20.568Z,1008.42
2019-05-22T10:25:20.212Z,1008.48
2019-05-22T10:26:19.922Z,1008.51
2019-05-22T10:27:19.494Z,1008.51
2019-05-22T10:28:19.163Z,1008.44
2019-05-22T10:29:18.724Z,1008.44
2019-05-22T10:30:18.353Z,1008.50
2019-05-22T10:31:18.079Z,1008.49
2019-05-22T10:32:17.604Z,1008.50
2019-05-22T10:33:17.292Z,1008.53
2019-05-22T10:34:16.826Z,1008.52
2019-05-22T10:35:24.821Z,1008.52
2019-05-22T10:36:23.188Z,1008.51
2019-05-22T10:37:22.881Z,1008.52
2019-05-22T10:38:22.494Z,1008.56
2019-05-22T10:39:24.687Z,1008.56
2019-05-22T10:40:21.773Z,1008.56
2019-05-22T10:41:21.370Z,1008.56
2019-05-22T10:42:20.992Z,1008.59
2019-05-22T10:43:20.641Z,1008.60
2019-05-22T10:44:20.226Z,1008.52
2019-05-22T10:45:24.668Z,1008.63
2019-05-22T10:46:23.358Z,1008.59
2019-05-22T10:47:22.884Z,1008.62
2019-05-22T10:48:22.486Z,1008.64
2019-05-22T10:49:22.045Z,1008.65
2019-05-22T10:50:21.634Z,1008.69
2019-05-22T10:51:21.250Z,1008.62
2019-05-22T10:52:20.908Z,1008.64
2019-05-22T10:53:32.891Z,1008.66
2019-05-22T10:54:20.095Z,1008.64
2019-05-22T10:55:24.385Z,1008.62
2019-05-22T10:56:22.983Z,1008.59
2019-05-22T10:57:22.582Z,1008.62
2019-05-22T10:58:22.301Z,1008.62
2019-05-22T10:59:21.889Z,1008.60
2019-05-22T11:00:21.470Z,1008.63
2019-05-22T11:01:21.151Z,1008.60
2019-05-22T11:02:20.670Z,1008.68
2019-05-22T11:03:20.316Z,1008.62
2019-05-22T11:04:19.957Z,1008.68
2019-05-22T11:05:19.504Z,1008.56
2019-05-22T11:06:19.170Z,1008.65
2019-05-22T11:07:18.708Z,1008.66
2019-05-22T11:08:18.371Z,1008.67
2019-05-22T11:09:17.980Z,1008.58
2019-05-22T11:10:17.521Z,1008.62
2019-05-22T11:11:22.098Z,1008.71
2019-05-22T11:12:20.731Z,1008.63
2019-05-22T11:13:20.292Z,1008.61
2019-05-22T11:14:19.922Z,1008.62
2019-05-22T11:15:19.498Z,1008.61
2019-05-22T11:16:19.167Z,1008.61
2019-05-22T11:17:18.762Z,1008.60
2019-05-22T11:18:18.391Z,1008.63
2019-05-22T11:19:17.973Z,1008.61
2019-05-22T11:20:17.665Z,1008.62
2019-05-22T11:21:17.325Z,1008.57
2019-05-22T11:22:18.759Z,1008.69
2019-05-22T11:23:20.795Z,1008.55
2019-05-22T11:24:19.736Z,1008.57
2019-05-22T11:25:19.315Z,1008.71
2019-05-22T11:26:18.965Z,1008.61
2019-05-22T11:27:21.398Z,1008.59
2019-05-22T11:28:20.295Z,1008.67
2019-05-22T11:29:19.850Z,1008.59
2019-05-22T11:30:19.475Z,1008.56
2019-05-22T11:31:21.984Z,1008.65
2019-05-22T11:32:20.850Z,1008.66
2019-05-22T11:33:25.294Z,1008.64
2019-05-22T11:34:23.905Z,1008.67
2019-05-22T11:35:23.542Z,1008.72
2019-05-22T11:36:23.077Z,1008.74
2019-05-22T11:37:22.609Z,1008.65
2019-05-22T11:38:22.359Z,1008.78
2019-05-22T11:39:38.079Z,1008.74
2019-05-22T11:40:21.351Z,1008.73
2019-05-22T11:41:21.005Z,1008.77
2019-05-22T11:42:20.539Z,1008.72
2019-05-22T11:43:25.081Z,1008.82
2019-05-22T11:44:23.664Z,1008.80
2019-05-22T11:45:31.607Z,1008.77
2019-05-22T11:46:29.952Z,1008.73
2019-05-22T11:47:34.408Z,1008.78
2019-05-22T11:48:33.175Z,1008.79
2019-05-22T11:49:32.632Z,1008.76
2019-05-22T11:50:32.281Z,1008.79
2019-05-22T11:51:31.975Z,1008.77
2019-05-22T11:52:31.510Z,1008.78
2019-05-22T11:53:31.165Z,1008.79
2019-05-22T11:54:30.744Z,1008.83
2019-05-22T11:55:43.734Z,1008.89
2019-05-22T11:56:29.987Z,1008.78
2019-05-22T11:57:29.618Z,1008.78
2019-05-22T11:58:29.369Z,1008.91
2019-05-22T11:59:28.858Z,1008.82
2019-05-22T12:00:28.494Z,1008.81
2019-05-22T12:01:28.018Z,1008.84
2019-05-22T12:02:27.716Z,1008.82
2019-05-22T12:03:27.410Z,1008.77
2019-05-22T12:04:26.968Z,1008.79
2019-05-22T12:05:26.589Z,1008.72
2019-05-22T12:06:26.357Z,1008.83